createdAt,value
2023-05-02T00:01:16.837Z,72.08
2023-05-02T00:03:45.755Z,72.19
2023-05-02T00:06:16.240Z,72.11
2023-05-02T00:08:45.122Z,72.07
2023-05-02T00:11:14.692Z,72.13
2023-05-02T00:13:44.266Z,72.15
2023-05-02T00:16:12.994Z,72.44
2023-05-02T00:18:42.249Z,72.30
2023-05-02T00:21:11.698Z,72.03
2023-05-02T00:23:41.937Z,72.48
2023-05-02T00:26:10.973Z,72.36
2023-05-02T00:28:43.835Z,72.15
2023-05-02T00:31:12.800Z,71.70
2023-05-02T00:33:41.631Z,71.31
2023-05-02T00:36:16.031Z,71.68
2023-05-02T00:38:46.391Z,71.50
2023-05-02T00:41:15.189Z,71.67
2023-05-02T00:43:43.927Z,71.25
2023-05-02T00:46:13.588Z,71.14
2023-05-02T00:48:42.443Z,71.00
2023-05-02T00:51:12.446Z,70.62
2023-05-02T00:53:41.761Z,71.18
2023-05-02T00:56:12.070Z,70.86
2023-05-02T00:58:42.059Z,70.83
2023-05-02T01:01:26.726Z,70.80
2023-05-02T01:04:10.033Z,70.80
2023-05-02T01:06:54.949Z,70.58
2023-05-02T01:09:35.026Z,70.69
2023-05-02T01:12:08.957Z,70.61
2023-05-02T01:14:43.806Z,70.43
2023-05-02T01:17:16.456Z,70.69
2023-05-02T01:19:51.897Z,70.18
2023-05-02T01:22:23.653Z,70.28
2023-05-02T01:25:01.720Z,70.67
2023-05-02T01:27:49.327Z,70.64
2023-05-02T01:30:22.836Z,70.32
2023-05-02T01:32:53.958Z,70.64
2023-05-02T01:35:25.397Z,70.93
2023-05-02T01:37:57.361Z,71.05
2023-05-02T01:40:27.316Z,70.61
2023-05-02T01:42:58.758Z,70.91
2023-05-02T01:45:30.900Z,70.78
2023-05-02T01:48:02.303Z,70.55
2023-05-02T01:50:33.024Z,71.10
2023-05-02T01:53:04.554Z,70.35
2023-05-02T01:55:37.521Z,70.87
2023-05-02T01:58:09.110Z,70.99
2023-05-02T02:00:41.992Z,71.09
2023-05-02T02:03:13.258Z,71.19
2023-05-02T02:05:43.336Z,71.09
2023-05-02T02:08:12.172Z,71.39
2023-05-02T02:10:45.331Z,71.43
2023-05-02T02:13:19.535Z,71.55
2023-05-02T02:15:52.448Z,71.56
2023-05-02T02:18:25.475Z,71.29
2023-05-02T02:20:55.481Z,71.44
2023-05-02T02:23:28.852Z,71.68
2023-05-02T02:25:59.198Z,71.95
2023-05-02T02:28:28.091Z,72.43
2023-05-02T02:30:58.674Z,71.91
2023-05-02T02:33:32.629Z,72.75
2023-05-02T02:36:17.027Z,72.49
2023-05-02T02:38:52.348Z,72.71
2023-05-02T02:41:29.267Z,72.89
2023-05-02T02:44:06.103Z,72.91
2023-05-02T02:46:57.885Z,73.36
2023-05-02T02:49:36.415Z,73.09
2023-05-02T02:52:12.484Z,73.35
2023-05-02T02:54:47.608Z,73.90
2023-05-02T02:57:20.203Z,73.43
2023-05-02T03:00:00.045Z,73.38
2023-05-02T03:02:34.329Z,73.86
2023-05-02T03:05:06.060Z,73.32
2023-05-02T03:07:34.908Z,72.88
2023-05-02T03:10:06.088Z,73.21
2023-05-02T03:12:36.845Z,72.55
2023-05-02T03:15:26.501Z,72.48
2023-05-02T03:17:57.091Z,72.37
2023-05-02T03:20:25.933Z,72.45
2023-05-02T03:22:55.463Z,72.65
2023-05-02T03:25:25.086Z,72.39
2023-05-02T03:27:54.253Z,72.50
2023-05-02T03:30:23.058Z,72.57
2023-05-02T03:32:52.578Z,72.51
2023-05-02T03:35:23.021Z,72.22
2023-05-02T03:37:53.806Z,71.94
2023-05-02T03:40:22.666Z,72.41
2023-05-02T03:42:51.410Z,72.30
2023-05-02T03:45:26.753Z,72.33
2023-05-02T03:47:56.058Z,72.85
2023-05-02T03:50:26.546Z,73.01
2023-05-02T03:52:56.386Z,73.37
2023-05-02T03:55:34.284Z,73.59
2023-05-02T03:58:04.859Z,73.94
2023-05-02T04:00:33.765Z,74.36
2023-05-02T04:03:07.431Z,74.68
2023-05-02T04:05:40.978Z,74.40
2023-05-02T04:08:12.078Z,74.75
2023-05-02T04:10:42.068Z,75.49
2023-05-02T04:13:13.041Z,75.08
2023-05-02T04:15:46.941Z,75.26
2023-05-02T04:18:19.982Z,76.12
2023-05-02T04:20:50.407Z,75.99
2023-05-02T04:23:21.390Z,76.45
2023-05-02T04:25:55.314Z,76.30
2023-05-02T04:28:31.268Z,76.01
2023-05-02T04:31:01.398Z,76.29
2023-05-02T04:33:30.392Z,75.83
2023-05-02T04:36:01.513Z,75.37
2023-05-02T04:38:32.584Z,75.76
2023-05-02T04:41:08.598Z,75.15
2023-05-02T04:43:44.008Z,75.21
2023-05-02T04:46:15.050Z,74.83
2023-05-02T04:48:43.963Z,74.50
2023-05-02T04:51:16.773Z,74.46
2023-05-02T04:53:49.362Z,74.24
2023-05-02T04:56:18.169Z,74.07
2023-05-02T04:58:47.034Z,73.97
2023-05-02T05:01:16.584Z,73.48
2023-05-02T05:03:45.527Z,73.19
2023-05-02T05:06:16.748Z,73.31
2023-05-02T05:08:47.440Z,73.31
2023-05-02T05:11:17.802Z,72.85
2023-05-02T05:13:46.814Z,72.50
2023-05-02T05:16:16.622Z,72.11
2023-05-02T05:18:45.921Z,72.11
2023-05-02T05:21:18.474Z,71.67
2023-05-02T05:23:48.928Z,71.44
2023-05-02T05:26:26.581Z,71.11
2023-05-02T05:28:56.035Z,70.67
2023-05-02T05:31:28.007Z,70.50
2023-05-02T05:34:02.121Z,69.92
2023-05-02T05:36:33.629Z,69.69
2023-05-02T05:39:04.442Z,69.29
2023-05-02T05:41:35.556Z,69.01
2023-05-02T05:44:08.116Z,68.87
2023-05-02T05:46:37.110Z,68.66
2023-05-02T05:49:07.536Z,67.97
2023-05-02T05:51:39.228Z,66.88
2023-05-02T05:54:08.124Z,65.89
2023-05-02T05:56:37.644Z,65.37
2023-05-02T05:59:14.034Z,64.88
2023-05-02T06:01:43.057Z,64.68
2023-05-02T06:04:12.975Z,64.45
2023-05-02T06:06:46.594Z,64.24
2023-05-02T06:09:15.383Z,63.77
2023-05-02T06:11:44.210Z,63.87
2023-05-02T06:14:13.545Z,63.77
2023-05-02T06:16:42.522Z,63.98
2023-05-02T06:19:11.757Z,63.72
2023-05-02T06:21:41.526Z,63.63
2023-05-02T06:24:11.789Z,63.42
2023-05-02T06:26:40.737Z,64.04
2023-05-02T06:29:09.463Z,64.22
2023-05-02T06:31:38.358Z,64.77
2023-05-02T06:34:07.143Z,63.95
2023-05-02T06:36:36.119Z,63.06
2023-05-02T06:39:04.929Z,62.13
2023-05-02T06:41:35.130Z,61.60
2023-05-02T06:44:03.924Z,61.43
2023-05-02T06:46:32.796Z,61.01
2023-05-02T06:49:01.576Z,60.68
2023-05-02T06:51:30.318Z,60.81
2023-05-02T06:53:59.365Z,60.75
2023-05-02T06:56:28.157Z,60.29
2023-05-02T06:58:58.487Z,60.22
2023-05-02T07:01:27.307Z,60.17
2023-05-02T07:03:56.144Z,59.76
2023-05-02T07:06:26.036Z,59.26
2023-05-02T07:08:55.340Z,59.59
2023-05-02T07:11:24.353Z,59.56
2023-05-02T07:13:53.170Z,59.23
2023-05-02T07:16:23.602Z,58.37
2023-05-02T07:18:52.469Z,58.50
2023-05-02T07:21:21.355Z,58.00
2023-05-02T07:23:50.235Z,57.72
2023-05-02T07:26:20.503Z,57.49
2023-05-02T07:28:49.380Z,56.82
2023-05-02T07:31:19.025Z,57.24
2023-05-02T07:33:49.831Z,57.41
2023-05-02T07:36:19.233Z,57.13
2023-05-02T07:38:47.990Z,56.95
2023-05-02T07:41:16.948Z,57.16
2023-05-02T07:43:46.054Z,56.16
2023-05-02T07:46:14.996Z,54.34
2023-05-02T07:48:44.113Z,54.09
2023-05-02T07:51:14.796Z,53.74
2023-05-02T07:53:43.976Z,52.48
2023-05-02T07:56:13.174Z,51.63
2023-05-02T07:58:41.991Z,51.13
2023-05-02T08:01:10.759Z,50.48
2023-05-02T08:03:39.720Z,50.57
2023-05-02T08:06:10.023Z,50.91
2023-05-02T08:08:40.437Z,50.42
2023-05-02T08:11:09.275Z,49.97
2023-05-02T08:13:37.936Z,49.80
2023-05-02T08:16:06.980Z,50.76
2023-05-02T08:18:37.156Z,51.65
2023-05-02T08:21:06.568Z,51.30
2023-05-02T08:23:35.441Z,49.94
2023-05-02T08:26:05.956Z,49.62
2023-05-02T08:28:37.521Z,49.76
2023-05-02T08:31:06.532Z,49.14
2023-05-02T08:33:35.347Z,49.70
2023-05-02T08:36:12.749Z,49.21
2023-05-02T08:38:41.656Z,48.88
2023-05-02T08:41:17.084Z,48.31
2023-05-02T08:43:46.258Z,49.29
2023-05-02T08:46:16.758Z,49.25
2023-05-02T08:48:48.667Z,49.01
2023-05-02T08:53:54.246Z,47.91
2023-05-02T08:56:25.543Z,48.14
2023-05-02T08:58:54.365Z,49.14
2023-05-02T09:01:25.589Z,49.44
2023-05-02T09:03:56.350Z,48.23
2023-05-02T09:06:26.271Z,47.40
2023-05-02T09:08:54.964Z,47.08
2023-05-02T09:11:25.404Z,46.79
2023-05-02T09:13:54.523Z,46.30
2023-05-02T09:16:26.021Z,46.43
2023-05-02T09:18:56.602Z,46.53
2023-05-02T09:21:27.405Z,46.60
2023-05-02T09:23:59.291Z,46.66
2023-05-02T09:26:32.751Z,46.70
2023-05-02T09:29:03.236Z,46.81
2023-05-02T09:34:11.772Z,48.10
2023-05-02T09:36:42.284Z,47.51
2023-05-02T09:39:13.815Z,46.97
2023-05-02T09:41:45.533Z,47.15
2023-05-02T09:44:17.377Z,46.54
2023-05-02T09:46:47.426Z,46.78
2023-05-02T09:49:19.165Z,46.44
2023-05-02T09:51:49.253Z,46.46
2023-05-02T09:54:38.601Z,46.53
2023-05-02T09:57:08.860Z,47.30
2023-05-02T09:59:37.816Z,46.50
2023-05-02T10:02:10.644Z,46.74
2023-05-02T10:04:40.700Z,46.75
2023-05-02T10:07:12.241Z,46.26
2023-05-02T10:09:45.854Z,44.87
2023-05-02T10:12:18.250Z,44.82
2023-05-02T10:14:56.903Z,44.84
2023-05-02T10:17:32.393Z,44.67
2023-05-02T10:20:05.484Z,45.12
2023-05-02T10:22:35.532Z,44.85
2023-05-02T10:25:06.484Z,44.25
2023-05-02T10:27:38.143Z,44.52
2023-05-02T10:30:09.195Z,44.22
2023-05-02T10:32:39.724Z,44.44
2023-05-02T10:35:09.403Z,45.13
2023-05-02T10:37:42.381Z,45.79
2023-05-02T10:40:13.035Z,44.55
2023-05-02T10:42:47.007Z,45.09
2023-05-02T10:45:32.883Z,44.41
2023-05-02T10:48:15.786Z,44.05
2023-05-02T10:50:47.673Z,43.90
2023-05-02T10:53:28.981Z,43.57
2023-05-02T10:56:12.582Z,43.72
2023-05-02T10:58:43.538Z,43.77
2023-05-02T11:01:34.469Z,44.29
2023-05-02T11:04:05.142Z,44.73
2023-05-02T11:06:35.558Z,44.68
2023-05-02T11:09:27.112Z,44.27
2023-05-02T11:11:57.808Z,43.93
2023-05-02T11:14:57.256Z,43.68
2023-05-02T11:17:27.254Z,44.01
2023-05-02T11:20:20.826Z,44.17
2023-05-02T11:22:51.082Z,44.56
2023-05-02T11:25:32.705Z,44.91
2023-05-02T11:28:02.240Z,45.04
2023-05-02T11:30:48.984Z,44.82
2023-05-02T11:33:20.399Z,45.14
2023-05-02T11:35:50.250Z,45.97
2023-05-02T11:38:22.822Z,45.00
2023-05-02T11:40:57.821Z,44.07
2023-05-02T11:43:31.234Z,43.93
2023-05-02T11:46:03.056Z,43.61
2023-05-02T11:48:33.636Z,45.10
2023-05-02T11:51:07.567Z,44.89
2023-05-02T11:53:43.077Z,45.14
2023-05-02T11:56:12.416Z,44.05
2023-05-02T11:58:44.248Z,43.44
2023-05-02T12:01:14.971Z,43.01
2023-05-02T12:03:46.239Z,42.97
2023-05-02T12:06:19.699Z,43.61
2023-05-02T12:08:49.432Z,44.36
2023-05-02T12:11:18.459Z,43.33
2023-05-02T12:13:49.113Z,42.93
2023-05-02T12:16:18.407Z,42.78
2023-05-02T12:18:49.629Z,42.84
2023-05-02T12:21:19.110Z,42.80
2023-05-02T12:23:48.263Z,43.17
2023-05-02T12:26:20.202Z,43.36
2023-05-02T12:28:55.139Z,43.68
2023-05-02T12:31:24.644Z,43.19
2023-05-02T12:33:57.924Z,43.43
2023-05-02T12:36:28.790Z,44.53
2023-05-02T12:38:59.936Z,44.86
2023-05-02T12:41:34.723Z,44.27
2023-05-02T12:44:05.067Z,43.49
2023-05-02T12:46:33.885Z,44.05
2023-05-02T12:49:09.978Z,43.72
2023-05-02T12:51:40.245Z,44.42
2023-05-02T12:54:09.225Z,44.12
2023-05-02T12:56:41.182Z,44.57
2023-05-02T12:59:10.183Z,44.38
2023-05-02T13:01:38.950Z,46.68
2023-05-02T13:04:09.274Z,49.30
2023-05-02T13:06:38.481Z,51.07
2023-05-02T13:09:07.564Z,50.21
2023-05-02T13:11:36.775Z,48.77
2023-05-02T13:14:06.064Z,46.94
2023-05-02T13:16:36.953Z,46.54
2023-05-02T13:19:06.813Z,45.74
2023-05-02T13:21:37.168Z,44.89
2023-05-02T13:24:06.841Z,44.38
2023-05-02T13:26:35.754Z,44.47
2023-05-02T13:29:04.884Z,44.55
2023-05-02T13:31:33.742Z,43.87
2023-05-02T13:34:02.570Z,44.61
2023-05-02T13:36:31.303Z,44.55
2023-05-02T13:39:01.956Z,44.85
2023-05-02T13:41:30.894Z,45.24
2023-05-02T13:43:59.603Z,45.33
2023-05-02T13:46:28.529Z,44.38
2023-05-02T13:48:57.269Z,44.05
2023-05-02T13:51:26.028Z,43.93
2023-05-02T13:53:54.756Z,43.85
2023-05-02T13:56:25.101Z,44.07
2023-05-02T13:58:54.048Z,44.39
2023-05-02T14:01:22.919Z,44.73
2023-05-02T14:03:52.055Z,44.82
2023-05-02T14:06:20.949Z,45.78
2023-05-02T14:08:51.651Z,45.44
2023-05-02T14:11:20.727Z,45.75
2023-05-02T14:13:50.983Z,46.34
2023-05-02T14:16:19.867Z,46.19
2023-05-02T14:18:50.362Z,46.53
2023-05-02T14:21:19.521Z,46.44
2023-05-02T14:23:48.168Z,47.21
2023-05-02T14:26:17.363Z,47.36
2023-05-02T14:28:46.436Z,47.10
2023-05-02T14:31:16.806Z,46.52
2023-05-02T14:33:46.166Z,47.29
2023-05-02T14:36:14.952Z,47.75
2023-05-02T14:38:43.868Z,47.59
2023-05-02T14:41:12.623Z,47.43
2023-05-02T14:43:41.859Z,47.52
2023-05-02T14:46:10.546Z,47.11
2023-05-02T14:48:40.785Z,47.45
2023-05-02T14:51:09.757Z,47.80
2023-05-02T14:53:39.583Z,48.03
2023-05-02T14:56:15.061Z,47.36
2023-05-02T14:58:43.856Z,47.56
2023-05-02T15:01:19.305Z,47.72
2023-05-02T15:04:04.959Z,47.81
2023-05-02T15:06:35.973Z,47.74
2023-05-02T15:09:06.216Z,48.02
2023-05-02T15:11:34.628Z,47.99
2023-05-02T15:14:03.416Z,48.35
2023-05-02T15:16:32.282Z,48.73
2023-05-02T15:19:02.623Z,48.94
2023-05-02T15:21:32.502Z,49.02
2023-05-02T15:24:01.313Z,49.50
2023-05-02T15:26:30.126Z,50.02
2023-05-02T15:28:59.072Z,50.48
2023-05-02T15:31:28.183Z,50.73
2023-05-02T15:33:57.021Z,50.55
2023-05-02T15:36:30.345Z,50.69
2023-05-02T15:38:59.307Z,50.07
2023-05-02T15:41:28.124Z,50.25
2023-05-02T15:43:58.237Z,50.33
2023-05-02T15:46:27.235Z,49.90
2023-05-02T15:48:56.461Z,50.47
2023-05-02T15:51:25.160Z,50.37
2023-05-02T15:53:55.823Z,50.63
2023-05-02T15:56:25.050Z,50.83
2023-05-02T15:58:53.751Z,50.89
2023-05-02T16:01:24.318Z,51.38
2023-05-02T16:03:53.244Z,51.47
2023-05-02T16:06:22.051Z,51.77
2023-05-02T16:08:51.230Z,51.87
2023-05-02T16:11:21.469Z,52.31
2023-05-02T16:13:50.501Z,52.24
2023-05-02T16:16:19.199Z,52.69
2023-05-02T16:18:48.300Z,52.94
2023-05-02T16:21:17.024Z,53.19
2023-05-02T16:23:45.822Z,53.07
2023-05-02T16:26:14.623Z,53.63
2023-05-02T16:28:44.906Z,53.78
2023-05-02T16:31:15.224Z,54.30
2023-05-02T16:33:44.185Z,54.44
2023-05-02T16:36:14.875Z,54.26
2023-05-02T16:38:43.868Z,54.33
2023-05-02T16:41:12.581Z,54.41
2023-05-02T16:43:41.451Z,54.64
2023-05-02T16:46:11.611Z,54.75
2023-05-02T16:48:40.423Z,54.74
2023-05-02T16:51:09.205Z,54.77
2023-05-02T16:53:38.056Z,54.89
2023-05-02T16:56:07.680Z,55.06
2023-05-02T16:58:36.973Z,55.13
2023-05-02T17:01:06.320Z,55.38
2023-05-02T17:03:36.372Z,55.57
2023-05-02T17:06:05.280Z,55.91
2023-05-02T17:08:34.460Z,56.57
2023-05-02T17:11:03.132Z,56.80
2023-05-02T17:13:31.961Z,56.64
2023-05-02T17:16:01.288Z,56.99
2023-05-02T17:18:30.521Z,58.14
2023-05-02T17:21:02.717Z,59.15
2023-05-02T17:23:33.174Z,63.02
2023-05-02T17:26:01.990Z,67.25
2023-05-02T17:28:30.650Z,69.86
2023-05-02T17:30:59.581Z,73.12
2023-05-02T17:33:28.502Z,75.40
2023-05-02T17:35:57.227Z,77.48
2023-05-02T17:38:28.263Z,79.28
2023-05-02T17:40:57.427Z,79.90
2023-05-02T17:43:26.138Z,80.63
2023-05-02T17:45:55.222Z,81.04
2023-05-02T17:48:24.161Z,81.30
2023-05-02T17:50:53.720Z,81.65
2023-05-02T17:53:22.711Z,81.67
2023-05-02T17:55:52.846Z,81.76
2023-05-02T17:58:21.753Z,81.68
2023-05-02T18:00:51.539Z,81.94
2023-05-02T18:03:20.677Z,82.09
2023-05-02T18:05:49.437Z,82.25
2023-05-02T18:08:18.649Z,82.18
2023-05-02T18:10:47.729Z,82.40
2023-05-02T18:13:18.018Z,82.42
2023-05-02T18:15:49.578Z,82.93
2023-05-02T18:18:18.818Z,83.04
2023-05-02T18:20:47.499Z,82.98
2023-05-02T18:23:17.384Z,83.19
2023-05-02T18:25:46.131Z,83.36
2023-05-02T18:28:15.011Z,83.24
2023-05-02T18:30:45.165Z,83.61
2023-05-02T18:33:14.035Z,83.80
2023-05-02T18:35:48.069Z,83.89
2023-05-02T18:38:18.058Z,83.82
2023-05-02T18:40:46.995Z,83.76
2023-05-02T18:43:15.716Z,83.78
2023-05-02T18:45:48.589Z,83.93
2023-05-02T18:48:17.466Z,84.01
2023-05-02T18:50:46.637Z,84.27
2023-05-02T18:53:15.665Z,84.66
2023-05-02T18:55:44.398Z,84.93
2023-05-02T18:58:13.252Z,84.55
2023-05-02T19:00:42.060Z,84.81
2023-05-02T19:03:12.900Z,85.18
2023-05-02T19:05:44.020Z,85.69
2023-05-02T19:08:13.163Z,85.37
2023-05-02T19:10:41.850Z,85.80
2023-05-02T19:13:10.676Z,85.78
2023-05-02T19:15:39.524Z,85.84
2023-05-02T19:18:08.848Z,85.45
2023-05-02T19:20:39.188Z,85.50
2023-05-02T19:23:19.541Z,85.70
2023-05-02T19:25:49.678Z,86.15
2023-05-02T19:28:18.602Z,86.30
2023-05-02T19:30:47.487Z,86.28
2023-05-02T19:33:16.247Z,86.55
2023-05-02T19:35:48.196Z,86.29
2023-05-02T19:38:17.947Z,86.68
2023-05-02T19:40:46.506Z,86.62
2023-05-02T19:43:15.314Z,86.62
2023-05-02T19:45:44.200Z,86.52
2023-05-02T19:48:14.688Z,86.40
2023-05-02T19:50:43.936Z,86.25
2023-05-02T19:53:14.131Z,86.34
2023-05-02T19:55:42.941Z,86.35
2023-05-02T19:58:11.611Z,87.00
2023-05-02T20:00:41.547Z,86.47
2023-05-02T20:03:10.509Z,86.68
2023-05-02T20:05:39.290Z,86.15
2023-05-02T20:08:08.117Z,86.63
2023-05-02T20:10:38.563Z,86.36
2023-05-02T20:13:07.367Z,86.55
2023-05-02T20:15:36.148Z,85.91
2023-05-02T20:18:05.311Z,86.04
2023-05-02T20:20:34.141Z,85.88
2023-05-02T20:23:03.056Z,86.15
2023-05-02T20:25:31.784Z,86.61
2023-05-02T20:28:02.079Z,86.16
2023-05-02T20:30:30.845Z,86.47
2023-05-02T20:33:10.674Z,86.49
2023-05-02T20:35:44.190Z,86.29
2023-05-02T20:38:13.378Z,87.13
2023-05-02T20:40:42.763Z,86.69
2023-05-02T20:43:14.272Z,86.59
2023-05-02T20:45:43.714Z,87.17
2023-05-02T20:48:12.814Z,87.00
2023-05-02T20:50:41.642Z,87.27
2023-05-02T20:53:10.346Z,87.58
2023-05-02T20:55:39.126Z,87.51
2023-05-02T20:58:07.814Z,87.48
2023-05-02T21:00:38.027Z,87.78
2023-05-02T21:03:06.930Z,87.56
2023-05-02T21:05:35.669Z,87.32
2023-05-02T21:08:04.578Z,87.84
2023-05-02T21:10:33.268Z,87.86
2023-05-02T21:13:02.170Z,87.86
2023-05-02T21:15:30.788Z,87.87
2023-05-02T21:18:04.272Z,88.38
2023-05-02T21:20:33.235Z,87.76
2023-05-02T21:23:01.933Z,87.76
2023-05-02T21:25:30.847Z,87.99
2023-05-02T21:27:59.478Z,88.03
2023-05-02T21:30:28.178Z,87.97
2023-05-02T21:32:56.993Z,88.00
2023-05-02T21:35:27.564Z,88.03
2023-05-02T21:37:56.491Z,88.22
2023-05-02T21:40:26.227Z,88.08
2023-05-02T21:42:55.317Z,88.04
2023-05-02T21:45:24.221Z,87.74
2023-05-02T21:47:53.160Z,87.65
2023-05-02T21:50:22.344Z,87.97
2023-05-02T21:52:52.566Z,87.65
2023-05-02T21:55:21.618Z,87.90
2023-05-02T21:57:50.359Z,87.72
2023-05-02T22:00:19.842Z,87.90
2023-05-02T22:02:48.793Z,87.55
2023-05-02T22:05:18.015Z,87.42
2023-05-02T22:07:49.406Z,87.81
2023-05-02T22:10:20.108Z,87.78
2023-05-02T22:12:49.061Z,87.47
2023-05-02T22:15:17.858Z,87.58
2023-05-02T22:17:46.794Z,87.44
2023-05-02T22:20:15.670Z,87.60
2023-05-02T22:22:44.796Z,87.77
2023-05-02T22:25:13.644Z,87.62
2023-05-02T22:27:44.117Z,87.61
2023-05-02T22:30:13.340Z,87.83
2023-05-02T22:32:42.623Z,87.74
2023-05-02T22:35:12.145Z,88.29
2023-05-02T22:37:40.986Z,87.73
2023-05-02T22:40:10.798Z,88.13
2023-05-02T22:42:39.950Z,87.98
2023-05-02T22:45:12.167Z,87.96
2023-05-02T22:47:41.713Z,87.90
2023-05-02T22:50:11.412Z,87.91
2023-05-02T22:52:40.056Z,88.36
2023-05-02T22:55:10.824Z,88.31
2023-05-02T22:57:40.454Z,88.37
2023-05-02T23:00:11.477Z,88.20
2023-05-02T23:02:40.408Z,88.41
2023-05-02T23:05:10.298Z,88.31
2023-05-02T23:07:39.270Z,88.68
2023-05-02T23:10:09.582Z,88.37
2023-05-02T23:12:38.420Z,88.69
2023-05-02T23:15:08.348Z,88.93
2023-05-02T23:17:41.492Z,89.00
2023-05-02T23:20:11.692Z,88.85
2023-05-02T23:22:45.847Z,88.86
2023-05-02T23:25:17.945Z,89.09
2023-05-02T23:27:46.964Z,88.66
2023-05-02T23:30:15.855Z,88.98
2023-05-02T23:32:47.554Z,89.11
2023-05-02T23:35:16.662Z,89.01
2023-05-02T23:37:45.542Z,89.10
2023-05-02T23:40:14.611Z,89.36
2023-05-02T23:42:43.668Z,89.18
2023-05-02T23:45:13.492Z,89.57
2023-05-02T23:47:42.090Z,89.38
2023-05-02T23:50:13.093Z,89.57
2023-05-02T23:52:42.065Z,89.16
2023-05-02T23:55:11.158Z,89.28
2023-05-02T23:57:40.061Z,89.46
